Time;durP1;ratioP1;P1;durP2;ratioP2;P2;SDS_P1;SDS_P2;PMS_P1;PMS_P2;Temp;Humidity;BMP_temperature;BMP_pressure;BME280_temperature;BME280_humidity;BME280_pressure;Samples;Min_cycle;Max_cycle;Signal;HPM_P1;HPM_P2
2021/11/25 00:02:44;;;;;;;0.80;0.80;;;;;;;7.66;91.95;100374.75;6141392;29;20436;-74
2021/11/25 00:05:50;;;;;;;1.40;0.90;;;;;;;7.70;91.67;100376.03;6141112;29;20250;-74
2021/11/25 00:08:54;;;;;;;0.80;0.80;;;;;;;7.66;91.73;100363.88;6142308;29;20195;-73
2021/11/25 00:11:59;;;;;;;2.30;1.10;;;;;;;7.71;91.60;100366.81;6142272;29;20224;-73
2021/11/25 00:15:04;;;;;;;1.17;1.00;;;;;;;7.80;91.19;100366.41;6141195;29;20585;-74
2021/11/25 00:18:18;;;;;;;0.93;0.93;;;;;;;7.62;91.64;100368.94;6141925;29;20223;-74
2021/11/25 00:21:25;;;;;;;0.83;0.83;;;;;;;7.78;91.52;100363.03;6141044;29;20250;-74
2021/11/25 00:24:29;;;;;;;0.80;0.80;;;;;;;7.68;91.12;100364.53;6142254;29;20236;-73
2021/11/25 00:27:33;;;;;;;0.70;0.70;;;;;;;7.79;91.31;100353.88;6141372;29;20267;-72
2021/11/25 00:30:38;;;;;;;3.40;3.20;;;;;;;7.92;90.29;100355.72;6142224;29;20259;-73
2021/11/25 00:33:42;;;;;;;0.90;0.90;;;;;;;7.90;90.37;100338.81;6141178;29;20220;-73
2021/11/25 00:36:48;;;;;;;1.93;0.80;;;;;;;7.92;89.41;100342.16;6141776;29;20191;-72
2021/11/25 00:39:52;;;;;;;1.70;0.90;;;;;;;7.97;89.34;100334.19;6141980;29;20212;-73
2021/11/25 00:42:56;;;;;;;0.93;0.93;;;;;;;7.91;88.99;100330.44;6140707;29;20472;-72
2021/11/25 00:46:00;;;;;;;0.80;0.80;;;;;;;7.90;89.41;100333.38;6142021;29;20189;-73
2021/11/25 00:49:05;;;;;;;0.77;0.77;;;;;;;7.94;88.79;100334.63;6146682;29;20192;-73
2021/11/25 00:52:11;;;;;;;2.07;0.80;;;;;;;8.00;88.54;100342.75;6149869;29;20191;-72
2021/11/25 00:55:17;;;;;;;0.80;0.80;;;;;;;7.91;88.72;100330.44;6149928;29;20188;-72
2021/11/25 00:58:21;;;;;;;0.97;0.70;;;;;;;7.99;88.20;100332.94;6149750;29;20195;-72
2021/11/25 01:01:26;;;;;;;1.20;0.97;;;;;;;8.23;86.70;100323.25;6149507;29;20255;-72
2021/11/25 01:04:30;;;;;;;1.75;1.65;;;;;;;8.13;86.78;100323.72;6149478;29;20231;-72
2021/11/25 01:07:36;;;;;;;0.70;0.70;;;;;;;8.28;86.03;100314.50;6149669;29;20195;-72
2021/11/25 01:10:40;;;;;;;2.90;0.80;;;;;;;8.48;85.32;100310.66;6149365;29;20192;-72
2021/11/25 01:13:45;;;;;;;1.10;0.90;;;;;;;8.32;85.27;100311.13;6149007;29;20188;-72
2021/11/25 01:16:49;;;;;;;3.90;0.83;;;;;;;8.48;84.88;100305.22;6149618;29;20188;-72
2021/11/25 01:19:54;;;;;;;0.80;0.80;;;;;;;8.37;84.95;100308.59;6149543;29;20279;-72
2021/11/25 01:23:02;;;;;;;2.08;0.80;;;;;;;8.33;85.07;100301.94;6149623;29;20256;-72
2021/11/25 01:26:07;;;;;;;1.85;0.88;;;;;;;8.50;84.13;100303.09;6149513;29;20188;-73
2021/11/25 01:29:12;;;;;;;0.88;0.88;;;;;;;8.54;83.94;100293.47;6148169;29;20232;-72
2021/11/25 01:32:16;;;;;;;0.93;0.80;;;;;;;8.48;83.77;100288.91;6149139;29;20189;-73
2021/11/25 01:35:21;;;;;;;0.60;0.60;;;;;;;8.53;83.61;100296.41;6148132;29;20188;-73
2021/11/25 01:38:27;;;;;;;0.90;0.90;;;;;;;8.38;84.18;100277.66;6149546;29;20188;-74
2021/11/25 01:41:31;;;;;;;1.70;0.87;;;;;;;8.55;83.59;100284.25;6149358;29;20279;-74
2021/11/25 01:44:35;;;;;;;0.98;0.98;;;;;;;8.49;84.09;100273.44;6149125;29;20219;-74
2021/11/25 01:47:43;;;;;;;1.00;1.00;;;;;;;8.57;83.55;100265.88;6149141;29;20188;-74
2021/11/25 01:50:49;;;;;;;0.88;0.88;;;;;;;8.34;84.05;100265.56;6147916;29;20491;-73
2021/11/25 01:53:55;;;;;;;2.67;1.00;;;;;;;8.40;84.23;100259.25;6149293;29;20195;-73
2021/11/25 01:57:00;;;;;;;0.80;0.80;;;;;;;8.48;83.82;100256.28;6147972;29;20196;-73
2021/11/25 02:00:06;;;;;;;3.03;0.80;;;;;;;8.38;84.14;100255.91;6146917;29;20223;-74
2021/11/25 02:03:16;;;;;;;0.75;0.75;;;;;;;8.34;84.38;100254.69;6145116;29;20208;-74
2021/11/25 02:06:21;;;;;;;0.85;0.70;;;;;;;8.35;84.20;100250.91;6144103;29;20327;-73
2021/11/25 02:09:27;;;;;;;1.20;0.80;;;;;;;8.26;84.57;100246.75;6145309;29;20240;-73
2021/11/25 02:12:31;;;;;;;0.70;0.70;;;;;;;8.28;84.59;100239.25;6143966;29;20195;-74
2021/11/25 02:15:37;;;;;;;2.47;0.90;;;;;;;8.38;84.50;100234.16;6144242;29;20211;-74
2021/11/25 02:18:41;;;;;;;1.25;0.80;;;;;;;8.32;84.03;100243.19;6145105;29;20219;-74
2021/11/25 02:21:47;;;;;;;0.90;0.90;;;;;;;8.26;84.49;100230.44;6144878;29;20290;-74
2021/11/25 02:24:52;;;;;;;0.73;0.73;;;;;;;8.38;83.76;100223.28;6143668;29;20373;-73
2021/11/25 02:27:57;;;;;;;1.55;0.80;;;;;;;8.18;85.20;100223.38;6143632;29;20211;-73
2021/11/25 02:31:01;;;;;;;1.67;0.90;;;;;;;8.13;85.25;100216.91;6144817;29;20193;-74
2021/11/25 02:34:06;;;;;;;0.80;0.80;;;;;;;8.16;85.17;100213.78;6144738;29;20251;-73
2021/11/25 02:37:15;;;;;;;1.60;1.60;;;;;;;8.03;85.55;100203.81;6143254;29;20476;-73
2021/11/25 02:40:23;;;;;;;1.15;1.10;;;;;;;8.19;84.93;100207.91;6144174;29;20263;-73
2021/11/25 02:43:30;;;;;;;0.95;0.77;;;;;;;8.14;85.42;100205.81;6144549;29;20236;-73
2021/11/25 02:46:34;;;;;;;1.58;0.73;;;;;;;8.17;85.13;100199.13;6143507;29;20192;-74
2021/11/25 02:49:39;;;;;;;0.90;0.90;;;;;;;8.29;84.45;100193.88;6144355;29;20223;-74
2021/11/25 02:52:46;;;;;;;0.95;0.73;;;;;;;8.18;84.67;100185.34;6144361;29;20189;-74
2021/11/25 02:55:50;;;;;;;0.70;0.70;;;;;;;8.23;84.77;100176.53;6142863;29;20494;-74
2021/11/25 02:58:57;;;;;;;0.90;0.90;;;;;;;8.20;84.74;100166.09;6142145;29;20204;-73
2021/11/25 03:02:01;;;;;;;0.60;0.60;;;;;;;8.12;84.82;100163.63;6142664;29;20630;-74
2021/11/25 03:05:08;;;;;;;2.30;0.90;;;;;;;8.13;85.14;100165.28;6143722;29;20231;-74
2021/11/25 03:08:19;;;;;;;0.60;0.60;;;;;;;8.04;85.18;100166.56;6143084;29;20211;-72
2021/11/25 03:11:26;;;;;;;0.60;0.60;;;;;;;8.23;84.90;100168.38;6141512;29;20259;-73
2021/11/25 03:14:30;;;;;;;2.30;1.00;;;;;;;8.11;85.37;100172.84;6143767;29;20188;-73
2021/11/25 03:17:37;;;;;;;1.23;0.77;;;;;;;8.13;85.30;100181.59;6142488;29;20383;-72
2021/11/25 03:20:43;;;;;;;0.65;0.65;;;;;;;8.15;85.19;100184.91;6143694;29;20216;-73
2021/11/25 03:23:50;;;;;;;0.80;0.80;;;;;;;8.16;85.30;100175.72;6143577;29;20243;-72
2021/11/25 03:26:54;;;;;;;0.70;0.70;;;;;;;8.18;85.03;100173.63;6142207;29;20377;-73
2021/11/25 03:29:59;;;;;;;0.90;0.90;;;;;;;8.23;85.47;100173.81;6143717;29;20228;-73
2021/11/25 03:33:05;;;;;;;0.80;0.80;;;;;;;8.28;85.89;100178.59;6142375;29;20196;-73
2021/11/25 03:36:10;;;;;;;0.80;0.80;;;;;;;8.35;85.22;100169.38;6141948;29;20195;-72
2021/11/25 03:39:16;;;;;;;0.80;0.80;;;;;;;8.37;85.14;100161.81;6143045;29;20255;-73
2021/11/25 03:42:20;;;;;;;1.30;0.80;;;;;;;8.42;85.20;100158.47;6143059;29;20255;-72
2021/11/25 03:45:25;;;;;;;0.73;0.73;;;;;;;8.50;84.50;100166.38;6142804;29;20195;-72
2021/11/25 03:48:29;;;;;;;0.90;0.90;;;;;;;8.39;85.29;100159.75;6143010;29;20268;-73
2021/11/25 03:51:33;;;;;;;0.80;0.80;;;;;;;8.39;85.19;100159.75;6142973;29;20224;-73
2021/11/25 03:54:39;;;;;;;0.73;0.73;;;;;;;8.51;84.98;100155.25;6142546;29;20192;-73
2021/11/25 03:57:44;;;;;;;1.42;0.70;;;;;;;8.43;85.23;100155.50;6142716;29;20188;-73
2021/11/25 04:00:52;;;;;;;0.90;0.90;;;;;;;8.57;84.75;100151.66;6141459;29;20219;-73
2021/11/25 04:03:56;;;;;;;3.00;0.80;;;;;;;8.64;84.35;100155.16;6142242;29;20247;-72
2021/11/25 04:07:00;;;;;;;1.60;1.00;;;;;;;8.67;84.03;100149.28;6141298;29;20415;-73
2021/11/25 04:10:08;;;;;;;0.90;0.90;;;;;;;8.50;84.72;100134.53;6142512;29;20252;-73
2021/11/25 04:13:13;;;;;;;0.90;0.90;;;;;;;8.40;85.22;100126.06;6142498;29;20264;-72
2021/11/25 04:16:18;;;;;;;1.27;0.90;;;;;;;8.52;84.46;100121.59;6141440;29;20189;-72
2021/11/25 04:19:22;;;;;;;0.90;0.90;;;;;;;8.39;85.52;100115.41;6141772;29;20193;-72
2021/11/25 04:22:26;;;;;;;0.88;0.88;;;;;;;8.30;85.41;100112.13;6140543;29;20216;-72
2021/11/25 04:25:33;;;;;;;0.80;0.80;;;;;;;8.42;84.99;100115.81;6141972;29;20260;-72
2021/11/25 04:28:38;;;;;;;0.77;0.77;;;;;;;8.59;84.39;100122.38;6141947;29;20227;-73
2021/11/25 04:38:29;;;;;;;1.02;0.90;;;;;;;8.73;83.40;100096.72;6140823;29;20188;-73
2021/11/25 04:41:35;;;;;;;0.88;0.88;;;;;;;8.71;83.72;100098.81;6141722;29;20212;-73
2021/11/25 04:44:40;;;;;;;1.27;0.85;;;;;;;8.49;84.27;100083.97;6141745;29;20196;-73
2021/11/25 04:47:45;;;;;;;2.10;0.90;;;;;;;8.49;84.79;100083.13;6141775;29;20188;-73
2021/11/25 04:50:49;;;;;;;1.60;0.82;;;;;;;8.59;84.60;100078.84;6141695;29;20192;-73
2021/11/25 04:53:56;;;;;;;0.90;0.90;;;;;;;8.57;84.61;100074.69;6141886;29;20243;-73
2021/11/25 04:57:02;;;;;;;1.00;1.00;;;;;;;8.64;84.10;100079.03;6140596;29;20223;-73
2021/11/25 05:00:08;;;;;;;0.70;0.70;;;;;;;8.63;83.75;100074.63;6141042;29;20204;-73
2021/11/25 05:03:16;;;;;;;1.02;0.90;;;;;;;8.62;83.79;100067.53;6140423;29;20235;-73
2021/11/25 05:06:21;;;;;;;0.90;0.90;;;;;;;8.61;83.52;100071.31;6140905;29;20610;-74
2021/11/25 05:09:25;;;;;;;0.80;0.80;;;;;;;8.51;84.34;100062.81;6141407;29;20188;-73
2021/11/25 05:12:31;;;;;;;0.90;0.90;;;;;;;8.57;84.36;100058.38;6140437;29;20381;-74
2021/11/25 05:15:36;;;;;;;0.80;0.80;;;;;;;8.58;84.55;100071.75;6141788;29;20253;-73
2021/11/25 05:18:40;;;;;;;0.70;0.70;;;;;;;8.52;84.08;100056.34;6141222;29;20195;-73
2021/11/25 05:21:46;;;;;;;0.70;0.70;;;;;;;8.52;84.42;100050.91;6141590;29;20216;-73
2021/11/25 05:24:50;;;;;;;0.70;0.70;;;;;;;8.59;84.41;100051.66;6141549;29;20237;-73
2021/11/25 05:27:56;;;;;;;0.75;0.75;;;;;;;8.67;83.99;100051.38;6141255;29;20220;-72
2021/11/25 05:31:01;;;;;;;0.88;0.88;;;;;;;8.65;84.01;100039.88;6140586;29;20188;-72
2021/11/25 05:34:05;;;;;;;1.55;1.00;;;;;;;8.57;84.54;100053.78;6141191;29;20189;-72
2021/11/25 05:37:09;;;;;;;0.80;0.80;;;;;;;8.57;84.31;100042.06;6145639;29;20188;-73
2021/11/25 05:40:16;;;;;;;2.92;0.85;;;;;;;8.48;85.13;100033.34;6144624;29;20479;-72
2021/11/25 05:43:21;;;;;;;0.70;0.70;;;;;;;8.51;85.09;100035.63;6144448;29;20277;-73
2021/11/25 05:46:25;;;;;;;0.98;0.98;;;;;;;8.46;84.55;100024.59;6145824;29;20228;-72
2021/11/25 05:49:30;;;;;;;1.67;0.80;;;;;;;8.50;84.66;100025.81;6145182;29;20195;-72
2021/11/25 05:52:35;;;;;;;1.20;1.00;;;;;;;8.51;85.24;100016.59;6144292;29;20200;-72
2021/11/25 05:55:39;;;;;;;0.73;0.73;;;;;;;8.59;84.60;100018.22;6144175;29;20208;-72
2021/11/25 05:58:44;;;;;;;0.90;0.90;;;;;;;8.71;83.74;100019.97;6144369;29;20236;-72
2021/11/25 06:01:48;;;;;;;0.93;0.93;;;;;;;8.66;83.68;100027.97;6145142;29;20216;-72
2021/11/25 06:04:53;;;;;;;0.77;0.77;;;;;;;8.63;84.08;100020.25;6144543;29;20263;-73
2021/11/25 06:07:59;;;;;;;0.90;0.90;;;;;;;8.70;83.32;100018.31;6144000;29;20243;-72
2021/11/25 06:11:04;;;;;;;4.28;1.02;;;;;;;8.55;84.21;100023.25;6143903;29;20494;-73
2021/11/25 06:14:10;;;;;;;0.80;0.80;;;;;;;8.44;84.53;100018.56;6145105;29;20291;-73
2021/11/25 06:17:16;;;;;;;0.73;0.73;;;;;;;8.55;84.18;100031.41;6144854;29;20195;-72
2021/11/25 06:20:22;;;;;;;1.33;0.70;;;;;;;8.56;83.60;100027.63;6143681;29;20212;-72
2021/11/25 06:23:27;;;;;;;0.90;0.90;;;;;;;8.50;84.06;100025.81;6144801;29;20216;-72
2021/11/25 06:26:31;;;;;;;1.77;0.90;;;;;;;8.61;83.64;100021.53;6144847;29;20189;-73
2021/11/25 06:29:37;;;;;;;2.20;0.77;;;;;;;8.59;83.34;100013.59;6143489;29;20360;-73
2021/11/25 06:32:43;;;;;;;1.38;0.80;;;;;;;8.59;83.25;100010.03;6144595;29;20192;-72
2021/11/25 06:35:47;;;;;;;2.03;0.93;;;;;;;8.40;84.01;100009.16;6143313;29;20432;-73
2021/11/25 06:38:51;;;;;;;1.00;1.00;;;;;;;8.39;84.10;100015.69;6143187;29;20244;-73
2021/11/25 06:41:56;;;;;;;0.90;0.90;;;;;;;8.35;84.31;100009.00;6144163;29;20321;-73
2021/11/25 06:45:02;;;;;;;2.42;1.13;;;;;;;8.45;84.30;100014.78;6144297;29;20227;-73
2021/11/25 06:48:07;;;;;;;1.05;1.00;;;;;;;8.56;84.20;100003.19;6142682;29;20188;-73
2021/11/25 06:51:11;;;;;;;0.88;0.88;;;;;;;8.51;84.33;100003.00;6143699;29;20204;-73
2021/11/25 06:54:15;;;;;;;1.00;1.00;;;;;;;8.63;83.68;99998.50;6144073;29;20199;-73
2021/11/25 06:57:19;;;;;;;3.20;0.90;;;;;;;8.54;83.62;99999.00;6143831;29;20235;-74
2021/11/25 07:00:27;;;;;;;5.95;1.00;;;;;;;8.65;83.25;99999.09;6143154;29;20189;-73
2021/11/25 07:03:33;;;;;;;2.05;1.38;;;;;;;8.52;83.71;100001.97;6143490;29;20236;-73
2021/11/25 07:06:37;;;;;;;0.88;0.88;;;;;;;8.67;83.34;100005.16;6142911;29;20303;-73
2021/11/25 07:09:41;;;;;;;4.32;1.23;;;;;;;8.68;82.82;99985.06;6143741;29;20195;-73
2021/11/25 07:12:47;;;;;;;1.23;1.10;;;;;;;8.61;83.48;99995.19;6143325;29;20203;-73
2021/11/25 07:15:52;;;;;;;0.95;0.95;;;;;;;8.64;82.89;99989.28;6143642;29;20255;-73
2021/11/25 07:18:57;;;;;;;4.35;1.10;;;;;;;8.60;83.56;99982.63;6143023;29;20188;-73
2021/11/25 07:22:01;;;;;;;1.00;1.00;;;;;;;8.50;83.98;99987.75;6142012;29;20497;-73
2021/11/25 07:25:07;;;;;;;1.38;0.90;;;;;;;8.50;84.23;99990.47;6143197;29;20188;-74
2021/11/25 07:28:12;;;;;;;1.10;1.10;;;;;;;8.38;84.51;99994.97;6142648;29;20203;-74
2021/11/25 07:31:17;;;;;;;3.08;1.15;;;;;;;8.41;84.94;99997.25;6141882;29;20478;-73
2021/11/25 07:34:22;;;;;;;1.13;1.08;;;;;;;8.51;84.56;99994.84;6141931;29;20211;-74
2021/11/25 07:37:26;;;;;;;0.85;0.85;;;;;;;8.55;83.61;99993.34;6141872;29;20380;-73
2021/11/25 07:40:30;;;;;;;1.08;1.08;;;;;;;8.64;83.22;99994.72;6141881;29;20189;-74
2021/11/25 07:43:35;;;;;;;0.90;0.90;;;;;;;8.51;83.53;99989.41;6141686;29;20291;-74
2021/11/25 07:46:41;;;;;;;1.75;1.00;;;;;;;8.49;83.71;99991.53;6142512;29;20243;-74
2021/11/25 07:49:45;;;;;;;0.90;0.90;;;;;;;8.68;82.40;99990.50;6141550;29;20196;-73
2021/11/25 07:52:50;;;;;;;1.10;1.10;;;;;;;8.75;81.48;99988.56;6141425;29;20420;-74
2021/11/25 07:55:54;;;;;;;0.80;0.80;;;;;;;8.57;82.19;99976.81;6142791;29;20195;-73
2021/11/25 07:58:58;;;;;;;1.00;1.00;;;;;;;8.37;81.79;99985.16;6140727;29;20271;-73
2021/11/25 08:02:04;;;;;;;0.80;0.80;;;;;;;8.61;81.47;99976.16;6142709;29;20271;-73
2021/11/25 08:05:11;;;;;;;3.72;0.70;;;;;;;8.54;81.58;99978.09;6141260;29;20421;-74
2021/11/25 08:08:16;;;;;;;0.88;0.80;;;;;;;8.61;80.97;99984.31;6141217;29;20193;-73
2021/11/25 08:11:21;;;;;;;0.93;0.80;;;;;;;8.62;80.75;99979.69;6142463;29;20220;-73
2021/11/25 08:14:25;;;;;;;0.73;0.73;;;;;;;8.70;80.23;99977.53;6142260;29;20207;-73
2021/11/25 08:17:30;;;;;;;0.98;0.98;;;;;;;8.67;80.12;99977.97;6142157;29;20210;-73
2021/11/25 08:20:35;;;;;;;0.82;0.82;;;;;;;8.70;80.66;99976.69;6141967;29;20229;-73
2021/11/25 08:23:39;;;;;;;1.05;0.93;;;;;;;8.77;80.25;99970.13;6142258;29;20274;-73
2021/11/25 08:26:43;;;;;;;1.85;0.82;;;;;;;8.78;80.39;99962.81;6142285;29;20189;-73
2021/11/25 08:29:48;;;;;;;1.30;0.90;;;;;;;8.55;80.99;99963.44;6141212;29;20222;-73
2021/11/25 08:32:54;;;;;;;0.82;0.82;;;;;;;8.62;81.48;99958.78;6141699;29;20224;-73
2021/11/25 08:35:58;;;;;;;0.77;0.70;;;;;;;8.58;81.25;99956.72;6141871;29;20195;-73
2021/11/25 08:39:03;;;;;;;1.02;0.90;;;;;;;8.70;80.03;99965.81;6140874;29;20188;-74
2021/11/25 08:42:09;;;;;;;2.83;0.95;;;;;;;8.63;80.38;99965.88;6141180;29;20196;-73
2021/11/25 08:45:15;;;;;;;0.70;0.70;;;;;;;8.66;80.43;99954.53;6142075;29;20237;-73
2021/11/25 08:48:21;;;;;;;0.77;0.77;;;;;;;8.62;80.02;99961.50;6142030;29;20195;-73
2021/11/25 08:51:25;;;;;;;1.30;0.70;;;;;;;8.70;79.83;99961.22;6140697;29;20411;-73
2021/11/25 08:54:30;;;;;;;0.80;0.80;;;;;;;8.69;79.74;99964.97;6140628;29;20216;-74
2021/11/25 08:57:34;;;;;;;0.82;0.82;;;;;;;8.61;80.11;99970.72;6141667;29;20192;-74
2021/11/25 09:00:38;;;;;;;0.82;0.82;;;;;;;8.60;80.25;99960.88;6140566;29;20261;-73
2021/11/25 09:03:45;;;;;;;0.70;0.70;;;;;;;8.76;79.56;99954.84;6141755;29;20230;-73
2021/11/25 09:06:49;;;;;;;1.20;1.10;;;;;;;8.92;79.42;99947.13;6140352;29;20295;-73
2021/11/25 09:09:53;;;;;;;1.48;0.90;;;;;;;8.70;80.44;99954.94;6143730;29;20255;-72
2021/11/25 09:12:58;;;;;;;0.90;0.90;;;;;;;8.69;80.44;99959.53;6145116;29;20189;-72
2021/11/25 09:16:02;;;;;;;0.85;0.85;;;;;;;8.56;81.14;99959.69;6146125;29;20263;-73
2021/11/25 09:19:08;;;;;;;0.80;0.80;;;;;;;8.61;81.31;99951.66;6145771;29;20188;-73
2021/11/25 09:22:14;;;;;;;1.70;0.82;;;;;;;8.56;81.53;99951.53;6144885;29;20495;-72
2021/11/25 09:25:19;;;;;;;0.90;0.90;;;;;;;8.49;81.58;99947.22;6144739;29;20218;-72
2021/11/25 09:28:27;;;;;;;2.58;0.90;;;;;;;8.63;81.14;99938.69;6145801;29;20267;-73
2021/11/25 09:31:32;;;;;;;1.00;1.00;;;;;;;8.56;81.52;99937.94;6146153;29;20219;-73
2021/11/25 09:34:38;;;;;;;1.05;0.90;;;;;;;8.69;80.50;99943.22;6144584;29;20506;-73
2021/11/25 09:37:42;;;;;;;2.65;0.90;;;;;;;8.74;80.47;99937.09;6145608;29;20199;-73
2021/11/25 09:40:49;;;;;;;0.90;0.90;;;;;;;8.62;80.75;99931.59;6145333;29;20228;-72
2021/11/25 09:43:54;;;;;;;2.05;0.90;;;;;;;8.61;81.08;99935.34;6144701;29;20216;-72
2021/11/25 09:46:59;;;;;;;1.40;1.10;;;;;;;8.73;80.95;99933.53;6145617;29;20188;-72
2021/11/25 09:50:06;;;;;;;1.15;1.00;;;;;;;8.79;80.50;99913.59;6145695;29;20192;-72
2021/11/25 09:53:14;;;;;;;2.75;1.10;;;;;;;8.85;80.37;99908.31;6144464;29;20188;-71
2021/11/25 09:56:18;;;;;;;3.30;1.10;;;;;;;8.65;81.02;99909.38;6144206;29;20310;-72
2021/11/25 09:59:23;;;;;;;1.33;1.23;;;;;;;8.74;81.18;99913.47;6145603;29;20188;-72
2021/11/25 10:02:33;;;;;;;2.92;0.93;;;;;;;8.74;81.40;99912.63;6144337;29;20189;-73
2021/11/25 10:05:40;;;;;;;1.70;1.13;;;;;;;8.93;80.75;99905.28;6144273;29;20248;-73
2021/11/25 10:08:47;;;;;;;1.60;0.90;;;;;;;8.81;80.77;99895.16;6145162;29;20193;-73
2021/11/25 10:11:51;;;;;;;1.35;1.10;;;;;;;8.59;81.87;99893.97;6143947;29;20187;-73
2021/11/25 10:14:56;;;;;;;1.00;1.00;;;;;;;8.71;81.45;99892.16;6145190;29;20192;-73
2021/11/25 10:18:03;;;;;;;0.88;0.88;;;;;;;8.65;81.74;99886.81;6144204;29;20189;-74
2021/11/25 10:21:12;;;;;;;1.92;1.00;;;;;;;8.75;81.82;99877.06;6144308;29;20216;-74
2021/11/25 10:24:17;;;;;;;1.17;1.00;;;;;;;8.64;81.51;99875.09;6144032;29;20224;-74
2021/11/25 10:27:25;;;;;;;1.42;1.00;;;;;;;8.76;81.56;99865.09;6143568;29;20473;-73
2021/11/25 10:30:36;;;;;;;6.47;1.00;;;;;;;8.79;80.95;99859.22;6144725;29;20192;-73
2021/11/25 10:33:49;;;;;;;4.13;1.02;;;;;;;8.72;81.58;99876.66;6144036;29;20267;-73
2021/11/25 10:37:03;;;;;;;1.20;1.20;;;;;;;8.58;81.61;99865.13;6144705;29;20188;-73
2021/11/25 10:40:23;;;;;;;3.42;1.38;;;;;;;8.62;81.57;99860.91;6143276;29;20188;-73
2021/11/25 10:43:29;;;;;;;4.15;1.17;;;;;;;8.78;80.46;99865.69;6144633;29;20188;-73
2021/11/25 10:46:39;;;;;;;2.15;1.10;;;;;;;8.54;81.19;99857.66;6143214;29;20420;-73
2021/11/25 10:49:47;;;;;;;2.45;1.25;;;;;;;8.63;80.20;99862.53;6144382;29;20196;-72
2021/11/25 10:52:54;;;;;;;1.35;0.95;;;;;;;8.59;80.63;99849.63;6143924;29;20263;-73
2021/11/25 10:56:05;;;;;;;2.40;0.90;;;;;;;8.58;80.50;99854.25;6143866;29;20255;-73
2021/11/25 10:59:11;;;;;;;2.80;1.20;;;;;;;8.68;79.50;99843.66;6144054;29;20195;-73
2021/11/25 11:02:23;;;;;;;1.00;1.00;;;;;;;8.49;79.81;99847.47;6144092;29;20196;-73
2021/11/25 11:05:28;;;;;;;5.88;1.20;;;;;;;8.56;79.01;99845.50;6143136;29;20246;-73
2021/11/25 11:08:43;;;;;;;3.53;1.33;;;;;;;8.50;78.81;99834.72;6142527;29;20490;-73
2021/11/25 11:11:47;;;;;;;1.13;1.08;;;;;;;8.49;78.88;99844.75;6143516;29;20189;-73
2021/11/25 11:14:55;;;;;;;1.63;1.17;;;;;;;8.49;78.00;99838.47;6142233;29;20499;-73
2021/11/25 11:21:30;;;;;;;4.13;1.33;;;;;;;8.49;77.60;99833.88;6146039;29;20224;-73
2021/11/25 11:24:38;;;;;;;2.90;1.10;;;;;;;8.48;77.53;99843.06;6146318;29;20263;-73
2021/11/25 11:27:42;;;;;;;3.00;1.08;;;;;;;8.49;78.22;99833.03;6129357;29;20204;-73
2021/11/25 11:30:47;;;;;;;1.30;1.20;;;;;;;8.53;77.87;99831.50;6147102;29;20192;-72
2021/11/25 11:33:51;;;;;;;2.65;1.00;;;;;;;8.48;77.85;99837.63;6146092;29;20236;-73
2021/11/25 11:36:58;;;;;;;1.35;1.25;;;;;;;8.51;78.06;99822.75;6146716;29;20193;-73
2021/11/25 11:40:07;;;;;;;2.40;0.90;;;;;;;8.46;77.54;99823.44;6146147;29;20196;-74
2021/11/25 11:43:28;;;;;;;1.23;1.05;;;;;;;8.39;77.92;99821.88;6146046;29;20385;-73
2021/11/25 11:46:35;;;;;;;1.33;1.20;;;;;;;8.44;77.38;99820.13;6145714;29;20216;-73
2021/11/25 11:49:43;;;;;;;2.95;1.15;;;;;;;8.39;77.26;99817.28;6146711;29;20211;-73
2021/11/25 11:52:55;;;;;;;2.03;1.42;;;;;;;8.68;75.73;99821.91;6146092;29;20189;-73
2021/11/25 11:56:03;;;;;;;2.15;1.20;;;;;;;8.76;74.88;99820.75;6146810;29;20216;-73
2021/11/25 11:59:09;;;;;;;3.30;1.00;;;;;;;8.59;75.25;99812.41;6146241;29;20192;-72
2021/11/25 12:02:33;;;;;;;1.27;1.17;;;;;;;8.54;75.26;99809.56;6145205;29;20188;-74
2021/11/25 12:05:50;;;;;;;2.17;1.20;;;;;;;8.47;76.01;99797.09;6110022;29;20281;-72
2021/11/25 12:08:54;;;;;;;1.10;1.10;;;;;;;8.62;74.86;99795.66;6098863;29;20190;-73
2021/11/25 12:12:09;;;;;;;3.15;1.30;;;;;;;8.51;74.78;99799.13;6098240;29;20249;-73
2021/11/25 12:15:19;;;;;;;6.18;1.35;;;;;;;8.33;75.01;99811.91;6098836;29;20488;-73
2021/11/25 12:18:32;;;;;;;1.80;1.10;;;;;;;8.33;74.63;99801.88;6098146;29;20302;-73
2021/11/25 12:21:44;;;;;;;2.20;1.27;;;;;;;8.40;74.58;99797.16;6099011;29;20383;-73
2021/11/25 12:24:54;;;;;;;1.52;1.10;;;;;;;8.38;73.88;99793.84;6098436;29;20509;-72
2021/11/25 12:28:21;;;;;;;3.58;1.25;;;;;;;8.39;73.88;99795.53;6098515;29;20189;-73
2021/11/25 12:31:42;;;;;;;2.15;1.20;;;;;;;8.47;73.46;99797.94;6097710;29;20370;-73
2021/11/25 12:34:47;;;;;;;3.00;1.38;;;;;;;8.37;73.48;99797.63;6098073;29;20197;-74
2021/11/25 12:38:00;;;;;;;2.33;0.85;;;;;;;8.30;73.16;99786.00;6113211;29;20241;-77
2021/11/25 12:41:24;;;;;;;3.60;1.15;;;;;;;8.36;73.43;99774.22;6096683;29;20296;-73
2021/11/25 12:44:30;;;;;;;1.20;1.10;;;;;;;8.32;72.65;99767.59;6093333;29;20395;-73
2021/11/25 12:47:34;;;;;;;1.87;1.17;;;;;;;8.34;72.70;99765.50;6093554;29;20245;-73
2021/11/25 12:50:40;;;;;;;3.33;1.20;;;;;;;8.38;71.61;99766.69;6094580;29;20196;-73
2021/11/25 12:53:48;;;;;;;2.53;1.00;;;;;;;8.27;72.79;99774.78;6093602;29;20213;-73
2021/11/25 12:56:54;;;;;;;1.88;1.00;;;;;;;8.21;72.35;99754.75;6093619;29;20193;-73
2021/11/25 13:00:00;;;;;;;3.95;1.10;;;;;;;8.22;71.72;99750.94;6094439;29;20189;-73
2021/11/25 13:03:07;;;;;;;4.40;2.22;;;;;;;8.16;72.22;99746.44;6108098;29;20492;-73
2021/11/25 13:06:11;;;;;;;2.28;1.02;;;;;;;8.14;72.26;99748.53;6124934;29;20355;-73
2021/11/25 13:09:18;;;;;;;2.33;1.10;;;;;;;8.16;71.79;99730.16;6141302;29;20188;-73
2021/11/25 13:12:22;;;;;;;1.35;1.00;;;;;;;8.15;72.44;99739.34;6140285;29;20465;-72
2021/11/25 13:15:28;;;;;;;1.10;1.10;;;;;;;8.10;72.49;99731.88;6141355;29;20188;-72
2021/11/25 13:18:47;;;;;;;7.68;1.10;;;;;;;8.07;72.72;99732.34;6141209;29;20200;-73
2021/11/25 13:21:53;;;;;;;4.20;1.10;;;;;;;7.81;72.15;99737.22;6140213;29;20224;-72
2021/11/25 13:25:01;;;;;;;1.08;1.08;;;;;;;7.95;72.49;99730.59;6140792;29;20195;-72
2021/11/25 13:28:19;;;;;;;2.45;1.10;;;;;;;7.94;72.25;99728.94;6141380;29;20213;-72
2021/11/25 13:31:30;;;;;;;1.55;1.00;;;;;;;7.90;72.14;99725.88;6140156;29;20383;-73
2021/11/25 13:34:36;;;;;;;1.10;1.10;;;;;;;7.77;72.65;99719.75;6140120;29;20422;-73
2021/11/25 13:37:43;;;;;;;2.13;1.10;;;;;;;7.79;71.64;99715.75;6139974;29;20584;-73
2021/11/25 13:40:47;;;;;;;1.33;0.90;;;;;;;7.72;72.10;99708.72;6141291;29;20252;-73
2021/11/25 13:43:54;;;;;;;1.75;1.08;;;;;;;7.94;72.01;99718.06;6140018;29;20467;-74
2021/11/25 13:47:01;;;;;;;6.03;1.17;;;;;;;7.77;72.09;99714.31;6141166;29;20216;-72
2021/11/25 13:50:10;;;;;;;2.20;1.10;;;;;;;7.85;71.78;99717.56;6139961;29;20487;-72
2021/11/25 13:53:14;;;;;;;3.30;0.82;;;;;;;7.71;71.81;99726.06;6141058;29;20189;-73
2021/11/25 13:56:19;;;;;;;0.90;0.90;;;;;;;7.38;72.58;99727.25;6142518;29;20192;-73
2021/11/25 13:59:25;;;;;;;2.83;1.30;;;;;;;7.49;72.92;99723.81;6145225;29;20353;-73
2021/11/25 14:02:31;;;;;;;1.60;0.90;;;;;;;7.43;72.37;99718.41;6143975;29;20440;-74
2021/11/25 14:05:41;;;;;;;1.40;1.23;;;;;;;7.73;71.26;99721.25;6144870;29;20518;-74
2021/11/25 14:08:46;;;;;;;4.38;1.27;;;;;;;7.50;71.89;99709.16;6144879;29;20224;-73
2021/11/25 14:11:56;;;;;;;3.20;1.20;;;;;;;7.79;71.10;99717.63;6144717;29;20188;-74
2021/11/25 14:15:00;;;;;;;1.53;1.13;;;;;;;7.66;71.60;99715.06;6144590;29;20188;-73
2021/11/25 14:18:08;;;;;;;1.30;1.10;;;;;;;7.45;72.63;99705.44;6144520;29;20208;-73
2021/11/25 14:21:12;;;;;;;1.17;1.07;;;;;;;7.30;73.69;99719.38;6143585;29;20447;-73
2021/11/25 14:24:19;;;;;;;1.10;1.10;;;;;;;7.23;74.01;99707.75;6144247;29;20352;-73
2021/11/25 14:30:49;;;;;;;1.37;1.13;;;;;;;7.23;74.00;99707.75;6144535;29;20259;-73
2021/11/25 14:34:00;;;;;;;4.43;1.17;;;;;;;7.01;74.54;99697.53;6144729;29;20189;-74
2021/11/25 14:37:14;;;;;;;4.43;1.23;;;;;;;7.05;74.66;99699.56;6144566;29;20204;-73
2021/11/25 14:40:19;;;;;;;2.53;1.27;;;;;;;7.08;74.81;99688.28;6143256;29;20495;-73
2021/11/25 14:43:26;;;;;;;2.53;1.53;;;;;;;7.09;73.67;99700.78;6144493;29;20224;-73
2021/11/25 14:46:31;;;;;;;1.23;1.00;;;;;;;7.05;73.26;99713.13;6144019;29;20215;-73
2021/11/25 14:49:38;;;;;;;2.20;1.03;;;;;;;7.03;72.58;99712.53;6143008;29;20244;-73
2021/11/25 14:52:42;;;;;;;2.60;1.10;;;;;;;6.72;73.51;99715.28;6144048;29;20192;-74
2021/11/25 14:55:53;;;;;;;2.50;0.97;;;;;;;6.64;73.74;99712.81;6143733;29;20196;-73
2021/11/25 14:59:00;;;;;;;1.00;1.00;;;;;;;6.52;74.15;99711.88;6144122;29;20224;-73